createdAt,value
2022-09-09T00:02:23.649Z,26.73
2022-09-09T00:06:15.109Z,26.70
2022-09-09T00:09:58.117Z,26.66
2022-09-09T00:13:58.084Z,26.56
2022-09-09T00:17:20.807Z,26.49
2022-09-09T00:21:08.808Z,26.44
2022-09-09T00:25:12.460Z,26.38
2022-09-09T00:28:53.603Z,26.32
2022-09-09T00:32:35.153Z,26.27
2022-09-09T00:36:17.255Z,26.22
2022-09-09T00:39:59.321Z,26.19
2022-09-09T00:43:41.429Z,26.15
2022-09-09T00:47:40.969Z,26.12
2022-09-09T00:51:45.581Z,26.09
2022-09-09T00:55:41.571Z,26.06
2022-09-09T00:59:48.081Z,26.03
2022-09-09T01:03:50.824Z,25.99
2022-09-09T01:07:29.094Z,25.97
2022-09-09T01:11:16.475Z,25.95
2022-09-09T01:15:03.451Z,25.92
2022-09-09T01:18:52.746Z,25.90
2022-09-09T01:22:33.617Z,25.87
2022-09-09T01:26:14.467Z,25.84
2022-09-09T01:29:51.810Z,25.81
2022-09-09T01:33:30.899Z,25.78
2022-09-09T01:37:11.991Z,25.74
2022-09-09T01:40:50.320Z,25.72
2022-09-09T01:44:28.497Z,25.68
2022-09-09T01:48:05.648Z,25.65
2022-09-09T01:51:44.931Z,25.63
2022-09-09T01:55:32.228Z,25.59
2022-09-09T01:59:33.629Z,25.54
2022-09-09T02:03:28.440Z,25.50
2022-09-09T02:07:31.731Z,25.46
2022-09-09T02:11:19.342Z,25.43
2022-09-09T02:15:04.968Z,25.39
2022-09-09T02:19:05.308Z,25.37
2022-09-09T02:22:46.870Z,25.36
2022-09-09T02:26:26.832Z,25.33
2022-09-09T02:30:06.013Z,25.31
2022-09-09T02:33:49.116Z,25.29
2022-09-09T02:37:32.552Z,25.27
2022-09-09T02:41:09.910Z,25.25
2022-09-09T02:44:47.919Z,25.23
2022-09-09T02:48:48.090Z,25.20
2022-09-09T02:52:46.718Z,25.19
2022-09-09T02:56:28.994Z,25.17
2022-09-09T03:00:07.286Z,25.15
2022-09-09T03:03:45.139Z,25.12
2022-09-09T03:07:23.414Z,25.09
2022-09-09T03:11:01.050Z,25.07
2022-09-09T03:14:39.480Z,25.03
2022-09-09T03:18:17.146Z,25.02
2022-09-09T03:21:55.317Z,25.00
2022-09-09T03:25:33.160Z,24.98
2022-09-09T03:29:13.428Z,24.97
2022-09-09T03:32:51.456Z,24.96
2022-09-09T03:36:30.271Z,24.96
2022-09-09T03:40:09.544Z,24.95
2022-09-09T03:43:46.793Z,24.95
2022-09-09T03:47:23.844Z,24.93
2022-09-09T03:51:01.831Z,24.93
2022-09-09T03:54:39.475Z,24.92
2022-09-09T03:58:18.058Z,24.93
2022-09-09T04:01:55.796Z,24.91
2022-09-09T04:05:33.382Z,24.91
2022-09-09T04:09:11.556Z,24.90
2022-09-09T04:12:49.674Z,24.90
2022-09-09T04:16:27.298Z,24.88
2022-09-09T04:20:05.909Z,24.88
2022-09-09T04:23:45.590Z,24.88
2022-09-09T04:27:22.734Z,24.89
2022-09-09T04:31:15.603Z,24.89
2022-09-09T04:34:53.000Z,24.89
2022-09-09T04:38:31.484Z,24.90
2022-09-09T04:42:08.735Z,24.89
2022-09-09T04:45:51.762Z,24.90
2022-09-09T04:49:29.277Z,24.92
2022-09-09T04:53:07.758Z,24.93
2022-09-09T04:56:45.013Z,24.95
2022-09-09T05:00:23.492Z,24.95
2022-09-09T05:04:01.873Z,24.95
2022-09-09T05:07:40.456Z,24.94
2022-09-09T05:11:28.958Z,24.93
2022-09-09T05:15:06.937Z,24.91
2022-09-09T05:18:45.826Z,24.90
2022-09-09T05:22:24.106Z,24.88
2022-09-09T05:26:02.649Z,24.86
2022-09-09T05:29:41.171Z,24.84
2022-09-09T05:33:19.065Z,24.81
2022-09-09T05:36:57.825Z,24.76
2022-09-09T05:40:35.145Z,24.71
2022-09-09T05:44:13.105Z,24.63
2022-09-09T05:47:53.784Z,24.57
2022-09-09T05:51:31.442Z,24.52
2022-09-09T05:55:09.757Z,24.48
2022-09-09T05:58:47.629Z,24.45
2022-09-09T06:02:25.822Z,24.43
2022-09-09T06:06:06.946Z,24.43
2022-09-09T06:09:44.682Z,24.45
2022-09-09T06:13:22.019Z,24.49
2022-09-09T06:17:00.809Z,24.53
2022-09-09T06:20:38.907Z,24.57
2022-09-09T06:24:16.746Z,24.61
2022-09-09T06:27:54.204Z,24.65
2022-09-09T06:31:33.896Z,24.70
2022-09-09T06:35:13.212Z,24.76
2022-09-09T06:38:52.413Z,24.82
2022-09-09T06:42:31.814Z,24.90
2022-09-09T06:46:14.566Z,24.97
2022-09-09T06:49:52.465Z,25.05
2022-09-09T06:53:30.839Z,25.14
2022-09-09T06:57:33.698Z,25.24
2022-09-09T07:01:07.512Z,25.37
2022-09-09T07:04:44.605Z,25.52
2022-09-09T07:08:22.863Z,25.67
2022-09-09T07:12:00.333Z,25.82
2022-09-09T07:15:38.404Z,25.98
2022-09-09T07:19:16.374Z,26.15
2022-09-09T07:22:56.552Z,26.32
2022-09-09T07:26:35.385Z,26.51
2022-09-09T07:30:20.915Z,26.69
2022-09-09T07:34:01.874Z,26.87
2022-09-09T07:37:39.832Z,27.06
2022-09-09T07:41:23.439Z,27.26
2022-09-09T07:45:01.301Z,27.45
2022-09-09T07:48:45.816Z,27.65
2022-09-09T07:52:23.513Z,27.85
2022-09-09T07:56:10.194Z,28.05
2022-09-09T07:59:48.653Z,28.24
2022-09-09T08:03:26.014Z,28.40
2022-09-09T08:07:04.472Z,28.55
2022-09-09T08:10:42.259Z,28.68
2022-09-09T08:14:20.128Z,28.80
2022-09-09T08:17:58.082Z,28.92
2022-09-09T08:21:37.790Z,29.03
2022-09-09T08:25:15.844Z,29.15
2022-09-09T08:28:55.963Z,29.28
2022-09-09T08:32:33.824Z,29.39
2022-09-09T08:36:18.198Z,29.51
2022-09-09T08:39:56.080Z,29.66
2022-09-09T08:43:37.079Z,29.81
2022-09-09T08:47:34.073Z,29.94
2022-09-09T08:51:13.181Z,30.04
2022-09-09T08:54:52.883Z,30.09
2022-09-09T08:58:36.301Z,30.10
2022-09-09T09:02:54.768Z,30.19
2022-09-09T09:06:31.693Z,30.32
2022-09-09T09:10:40.497Z,30.43
2022-09-09T09:14:25.540Z,30.53
2022-09-09T09:18:05.935Z,30.62
2022-09-09T09:22:03.848Z,30.71
2022-09-09T09:25:24.029Z,30.82
2022-09-09T09:29:11.500Z,30.92
2022-09-09T09:33:02.091Z,31.06
2022-09-09T09:36:44.432Z,31.15
2022-09-09T09:40:23.837Z,31.25
2022-09-09T09:44:03.200Z,31.38
2022-09-09T09:47:40.531Z,31.51
2022-09-09T09:51:21.065Z,31.63
2022-09-09T09:55:05.272Z,31.73
2022-09-09T09:58:46.254Z,31.83
2022-09-09T10:02:26.374Z,31.96
2022-09-09T10:06:04.453Z,32.11
2022-09-09T10:09:42.618Z,32.23
2022-09-09T10:13:42.505Z,32.32
2022-09-09T10:17:31.920Z,32.40
2022-09-09T10:21:33.325Z,32.49
2022-09-09T10:25:39.433Z,32.61
2022-09-09T10:29:55.577Z,32.70
2022-09-09T10:33:41.412Z,32.77
2022-09-09T10:37:43.963Z,32.89
2022-09-09T10:41:33.486Z,33.02
2022-09-09T10:45:29.469Z,33.10
2022-09-09T10:49:14.085Z,33.19
2022-09-09T10:53:01.571Z,33.15
2022-09-09T10:56:40.254Z,33.11
2022-09-09T11:00:27.216Z,33.18
2022-09-09T11:04:17.820Z,33.30
2022-09-09T11:08:01.142Z,33.43
2022-09-09T11:11:49.615Z,33.46
2022-09-09T11:15:48.356Z,33.42
2022-09-09T11:19:34.769Z,33.42
2022-09-09T11:23:20.033Z,33.44
2022-09-09T11:27:27.676Z,33.48
2022-09-09T11:31:43.354Z,33.59
2022-09-09T11:35:41.122Z,33.71
2022-09-09T11:39:28.421Z,33.76
2022-09-09T11:43:45.501Z,33.79
2022-09-09T11:47:28.932Z,33.88
2022-09-09T11:51:16.908Z,33.90
2022-09-09T11:54:56.976Z,33.89
2022-09-09T11:58:42.943Z,33.91
2022-09-09T12:02:26.503Z,33.98
2022-09-09T12:06:21.455Z,34.05
2022-09-09T12:10:05.702Z,34.13
2022-09-09T12:13:54.022Z,34.15
2022-09-09T12:17:38.479Z,34.18
2022-09-09T12:21:40.974Z,34.20
2022-09-09T12:25:35.205Z,34.19
2022-09-09T12:29:34.455Z,34.22
2022-09-09T12:33:17.604Z,34.28
2022-09-09T12:37:03.414Z,34.32
2022-09-09T12:40:40.728Z,34.40
2022-09-09T12:44:17.783Z,34.37
2022-09-09T12:48:05.251Z,34.41
2022-09-09T12:51:44.673Z,34.49
2022-09-09T12:55:40.680Z,34.50
2022-09-09T12:59:28.238Z,34.55
2022-09-09T13:03:22.085Z,34.62
2022-09-09T13:07:09.557Z,34.63
2022-09-09T13:11:00.268Z,34.64
2022-09-09T13:14:45.835Z,34.69
2022-09-09T13:18:27.995Z,34.84
2022-09-09T13:22:21.503Z,34.87
2022-09-09T13:26:01.691Z,35.07
2022-09-09T13:29:39.472Z,35.30
2022-09-09T13:33:18.123Z,35.40
2022-09-09T13:37:24.654Z,35.42
2022-09-09T13:41:07.844Z,35.38
2022-09-09T13:44:47.782Z,35.19
2022-09-09T13:48:26.651Z,34.97
2022-09-09T13:52:13.719Z,35.02
2022-09-09T13:55:53.501Z,35.69
2022-09-09T13:59:53.938Z,37.13
2022-09-09T14:03:28.607Z,39.74
2022-09-09T14:07:06.994Z,42.19
2022-09-09T14:10:45.011Z,44.15
2022-09-09T14:14:23.038Z,45.57
2022-09-09T14:18:00.718Z,46.38
2022-09-09T14:21:39.523Z,46.60
2022-09-09T14:25:17.492Z,46.62
2022-09-09T14:28:56.115Z,46.78
2022-09-09T14:32:53.846Z,46.85
2022-09-09T14:36:11.767Z,47.14
2022-09-09T14:39:50.640Z,46.59
2022-09-09T14:43:28.408Z,45.02
2022-09-09T14:47:07.033Z,43.57
2022-09-09T14:50:45.122Z,42.10
2022-09-09T14:54:24.489Z,41.06
2022-09-09T14:58:03.899Z,40.09
2022-09-09T15:01:41.629Z,38.95
2022-09-09T15:05:18.986Z,37.92
2022-09-09T15:08:58.543Z,37.10
2022-09-09T15:12:36.106Z,36.56
2022-09-09T15:16:18.561Z,36.20
2022-09-09T15:19:55.901Z,35.80
2022-09-09T15:23:34.629Z,35.47
2022-09-09T15:27:11.761Z,35.18
2022-09-09T15:30:52.103Z,34.97
2022-09-09T15:34:30.021Z,34.73
2022-09-09T15:38:08.048Z,34.47
2022-09-09T15:41:47.691Z,34.26
2022-09-09T15:45:24.989Z,34.10
2022-09-09T15:49:05.197Z,33.95
2022-09-09T15:52:43.162Z,33.84
2022-09-09T15:56:20.900Z,33.77
2022-09-09T15:59:59.407Z,33.63
2022-09-09T16:03:45.553Z,33.46
2022-09-09T16:07:24.353Z,33.34
2022-09-09T16:11:13.603Z,33.25
2022-09-09T16:14:51.356Z,33.12
2022-09-09T16:18:45.471Z,32.93
2022-09-09T16:22:23.672Z,32.79
2022-09-09T16:26:05.616Z,32.65
2022-09-09T16:29:44.092Z,32.58
2022-09-09T16:33:22.710Z,32.51
2022-09-09T16:37:00.440Z,32.42
2022-09-09T16:40:39.549Z,32.30
2022-09-09T16:44:18.941Z,32.18
2022-09-09T16:47:56.514Z,32.07
2022-09-09T16:51:51.776Z,32.02
2022-09-09T16:55:29.037Z,31.98
2022-09-09T16:59:10.263Z,31.90
2022-09-09T17:02:49.296Z,31.81
2022-09-09T17:06:26.492Z,31.62
2022-09-09T17:10:04.494Z,31.50
2022-09-09T17:13:44.768Z,31.46
2022-09-09T17:17:31.581Z,31.38
2022-09-09T17:21:12.630Z,31.31
2022-09-09T17:24:50.555Z,31.23
2022-09-09T17:28:29.690Z,31.15
2022-09-09T17:32:07.383Z,31.04
2022-09-09T17:35:45.687Z,30.92
2022-09-09T17:39:23.733Z,30.83
2022-09-09T17:43:01.337Z,30.73
2022-09-09T17:46:43.784Z,30.60
2022-09-09T17:50:21.289Z,30.49
2022-09-09T17:54:05.837Z,30.38
2022-09-09T17:57:43.394Z,30.28
2022-09-09T18:01:26.623Z,30.17
2022-09-09T18:05:04.205Z,30.06
2022-09-09T18:08:44.231Z,29.96
2022-09-09T18:12:21.776Z,29.87
2022-09-09T18:15:59.945Z,29.77
2022-09-09T18:19:37.712Z,29.70
2022-09-09T18:23:16.491Z,29.62
2022-09-09T18:26:54.693Z,29.56
2022-09-09T18:30:32.299Z,29.50
2022-09-09T18:34:12.789Z,29.44
2022-09-09T18:37:50.969Z,29.38
2022-09-09T18:41:37.391Z,29.32
2022-09-09T18:45:15.394Z,29.24
2022-09-09T18:48:52.838Z,29.16
2022-09-09T18:52:32.006Z,29.10
2022-09-09T18:56:13.841Z,29.04
2022-09-09T18:59:51.404Z,29.04
2022-09-09T19:03:30.921Z,29.00
2022-09-09T19:07:08.815Z,28.97
2022-09-09T19:10:47.899Z,28.93
2022-09-09T19:14:25.177Z,28.89
2022-09-09T19:18:05.837Z,28.85
2022-09-09T19:21:43.888Z,28.80
2022-09-09T19:25:21.943Z,28.73
2022-09-09T19:29:01.094Z,28.71
2022-09-09T19:32:54.870Z,28.68
2022-09-09T19:36:32.731Z,28.64
2022-09-09T19:40:11.005Z,28.60
2022-09-09T19:43:48.144Z,28.57
2022-09-09T19:47:25.550Z,28.55
2022-09-09T19:51:06.665Z,28.55
2022-09-09T19:54:45.761Z,28.52
2022-09-09T19:58:23.200Z,28.49
2022-09-09T20:02:03.923Z,28.46
2022-09-09T20:05:41.808Z,28.42
2022-09-09T20:09:22.913Z,28.37
2022-09-09T20:13:00.187Z,28.33
2022-09-09T20:16:37.314Z,28.28
2022-09-09T20:20:14.297Z,28.25
2022-09-09T20:23:54.593Z,28.23
2022-09-09T20:27:32.372Z,28.19
2022-09-09T20:31:12.422Z,28.16
2022-09-09T20:34:50.172Z,28.13
2022-09-09T20:38:29.893Z,28.11
2022-09-09T20:42:08.170Z,28.08
2022-09-09T20:45:45.736Z,28.07
2022-09-09T20:49:23.890Z,28.05
2022-09-09T20:53:03.883Z,28.01
2022-09-09T20:56:42.694Z,27.99
2022-09-09T21:00:20.443Z,27.96
2022-09-09T21:03:57.862Z,27.95
2022-09-09T21:07:36.091Z,27.93
2022-09-09T21:11:14.275Z,27.92
2022-09-09T21:14:51.657Z,27.91
2022-09-09T21:18:29.823Z,27.89
2022-09-09T21:22:08.054Z,27.86
2022-09-09T21:25:46.973Z,27.84
2022-09-09T21:29:24.301Z,27.80
2022-09-09T21:33:02.032Z,27.76
2022-09-09T21:36:39.542Z,27.75
2022-09-09T21:40:17.801Z,27.72
2022-09-09T21:43:57.746Z,27.67
2022-09-09T21:47:35.277Z,27.63
2022-09-09T21:51:15.295Z,27.57
2022-09-09T21:54:53.470Z,27.55
2022-09-09T21:58:33.130Z,27.51
2022-09-09T22:02:11.527Z,27.48
2022-09-09T22:05:53.819Z,27.45
2022-09-09T22:09:34.112Z,27.43
2022-09-09T22:13:11.751Z,27.39
2022-09-09T22:16:49.982Z,27.36
2022-09-09T22:20:33.680Z,27.33
2022-09-09T22:24:07.053Z,27.29
2022-09-09T22:27:44.911Z,27.26
2022-09-09T22:31:22.163Z,27.23
2022-09-09T22:34:59.387Z,27.21
2022-09-09T22:38:37.360Z,27.19
2022-09-09T22:42:15.629Z,27.13
2022-09-09T22:45:53.677Z,27.07
2022-09-09T22:49:31.106Z,27.03
2022-09-09T22:53:13.676Z,26.99
2022-09-09T22:56:51.852Z,26.95
2022-09-09T23:00:29.290Z,26.90
2022-09-09T23:04:07.309Z,26.86
2022-09-09T23:07:45.593Z,26.82
2022-09-09T23:11:24.315Z,26.78
2022-09-09T23:15:03.020Z,26.75
2022-09-09T23:18:41.916Z,26.72
2022-09-09T23:22:19.067Z,26.70
2022-09-09T23:25:56.872Z,26.66
2022-09-09T23:29:34.036Z,26.63
2022-09-09T23:33:11.109Z,26.61
2022-09-09T23:36:49.094Z,26.59
2022-09-09T23:40:27.682Z,26.56
2022-09-09T23:44:06.591Z,26.53
2022-09-09T23:47:43.736Z,26.50
2022-09-09T23:51:23.122Z,26.47
2022-09-09T23:55:01.354Z,26.45
2022-09-09T23:58:39.438Z,26.41
